La Quinta, California
Current Conditions -  °F | °C
As of 8:52 AM on Thursday 23 Oct 2014 (Local Time) from KTRM Reporting Station
Clear Clear  
Wind Chill: 74°   Ceiling: Unl
Heat Index: 74°   Visibility: 10mi
Dew Point: 42°   Wind: 5mph
Humidity: 32%   Direction: 330°NNW
Pressure: 29.95"   Gusts: NA
Location:  33.68°N, 116.29°W
Report Text: KTRM 231552Z AUTO 33004KT 10SM CLR 23/06 A2995 RMK AO2 SLP144 T02330056 TSNO
Loading
Personal Weather Stations






























Interactive Weather Map
Tropical Storm Tracking
New forecast layout! Learn more

10-Day Weather Forecast

Advertisements
Track Severe Weather on mobile